createdAt,value
2022-09-23T00:01:59.253Z,3.47
2022-09-23T00:04:47.075Z,3.53
2022-09-23T00:07:34.559Z,3.80
2022-09-23T00:10:23.285Z,3.50
2022-09-23T00:13:10.750Z,3.90
2022-09-23T00:15:57.807Z,3.63
2022-09-23T00:18:45.002Z,3.55
2022-09-23T00:21:32.380Z,3.97
2022-09-23T00:24:19.704Z,3.80
2022-09-23T00:27:06.842Z,4.10
2022-09-23T00:29:53.930Z,3.78
2022-09-23T00:32:41.038Z,3.80
2022-09-23T00:35:28.114Z,3.95
2022-09-23T00:38:15.186Z,3.85
2022-09-23T00:41:03.737Z,4.30
2022-09-23T00:43:53.638Z,4.40
2022-09-23T00:46:43.597Z,4.30
2022-09-23T00:49:31.173Z,4.10
2022-09-23T00:52:23.143Z,4.28
2022-09-23T00:55:16.718Z,4.25
2022-09-23T00:58:07.422Z,4.70
2022-09-23T01:00:54.823Z,4.65
2022-09-23T01:03:44.617Z,4.57
2022-09-23T01:06:31.881Z,4.43
2022-09-23T01:09:20.247Z,4.43
2022-09-23T01:12:29.764Z,4.40
2022-09-23T01:15:33.398Z,4.57
2022-09-23T01:19:03.136Z,4.03
2022-09-23T01:22:08.465Z,4.00
2022-09-23T01:25:05.702Z,4.60
2022-09-23T01:28:01.337Z,4.72
2022-09-23T01:30:58.330Z,4.88
2022-09-23T01:34:12.571Z,4.70
2022-09-23T01:37:33.448Z,5.03
2022-09-23T01:40:20.916Z,4.90
2022-09-23T01:43:15.668Z,4.18
2022-09-23T01:46:09.229Z,3.92
2022-09-23T01:49:04.988Z,4.30
2022-09-23T01:52:19.454Z,4.05
2022-09-23T01:55:24.742Z,4.15
2022-09-23T01:58:29.148Z,4.00
2022-09-23T02:01:23.387Z,4.35
2022-09-23T02:04:17.462Z,4.50
2022-09-23T02:07:10.721Z,4.50
2022-09-23T02:10:04.932Z,4.15
2022-09-23T02:12:59.307Z,4.18
2022-09-23T02:15:56.536Z,4.32
2022-09-23T02:18:52.127Z,4.60
2022-09-23T02:21:44.532Z,3.92
2022-09-23T02:24:34.766Z,4.20
2022-09-23T02:27:40.791Z,4.25
2022-09-23T02:30:38.910Z,4.75
2022-09-23T02:33:37.046Z,4.65
2022-09-23T02:36:53.643Z,4.82
2022-09-23T02:40:12.727Z,4.40
2022-09-23T02:43:12.416Z,5.53
2022-09-23T02:46:00.662Z,4.93
2022-09-23T02:48:56.813Z,5.90
2022-09-23T02:51:45.704Z,5.70
2022-09-23T02:54:33.666Z,5.75
2022-09-23T02:57:21.291Z,4.90
2022-09-23T03:00:09.032Z,6.50
2022-09-23T03:03:21.670Z,4.97
2022-09-23T03:06:22.403Z,5.47
2022-09-23T03:09:19.900Z,6.72
2022-09-23T03:12:16.529Z,6.30
2022-09-23T03:15:19.165Z,6.28
2022-09-23T03:18:21.400Z,5.97
2022-09-23T03:21:41.109Z,5.13
2022-09-23T03:24:32.112Z,5.03
2022-09-23T03:27:23.450Z,5.05
2022-09-23T03:33:00.279Z,4.63
2022-09-23T03:36:33.910Z,6.28
2022-09-23T03:39:32.535Z,4.95
2022-09-23T03:42:26.012Z,5.25
2022-09-23T03:45:19.071Z,4.65
2022-09-23T03:48:07.129Z,5.50
2022-09-23T03:50:54.263Z,5.93
2022-09-23T03:53:41.375Z,6.07
2022-09-23T03:56:28.434Z,5.93
2022-09-23T03:59:16.443Z,5.97
2022-09-23T04:02:07.344Z,5.35
2022-09-23T04:04:54.796Z,4.78
2022-09-23T04:07:42.472Z,5.53
2022-09-23T04:10:29.525Z,6.63
2022-09-23T04:13:17.393Z,5.40
2022-09-23T04:16:04.662Z,4.20
2022-09-23T04:18:51.849Z,4.00
2022-09-23T04:21:39.726Z,3.60
2022-09-23T04:24:26.937Z,3.88
2022-09-23T04:27:14.246Z,3.65
2022-09-23T04:30:01.325Z,3.83
2022-09-23T04:32:48.440Z,3.40
2022-09-23T04:35:39.922Z,3.40
2022-09-23T04:38:27.391Z,3.72
2022-09-23T04:41:15.241Z,2.83
2022-09-23T04:44:02.392Z,3.58
2022-09-23T04:46:49.688Z,3.45
2022-09-23T04:49:36.797Z,2.97
2022-09-23T04:52:23.949Z,3.05
2022-09-23T04:55:11.422Z,3.63
2022-09-23T04:57:58.821Z,3.40
2022-09-23T05:00:46.540Z,3.15
2022-09-23T05:03:35.337Z,5.30
2022-09-23T05:06:22.639Z,3.88
2022-09-23T05:09:13.729Z,4.13
2022-09-23T05:12:01.114Z,3.88
2022-09-23T05:14:48.751Z,4.40
2022-09-23T05:17:37.326Z,5.50
2022-09-23T05:20:24.591Z,5.38
2022-09-23T05:23:11.641Z,5.65
2022-09-23T05:26:00.887Z,5.70
2022-09-23T05:28:48.336Z,5.80
2022-09-23T05:31:35.617Z,6.35
2022-09-23T05:34:23.175Z,5.28
2022-09-23T05:37:10.635Z,6.32
2022-09-23T05:39:57.753Z,5.53
2022-09-23T05:42:44.991Z,5.72
2022-09-23T05:45:32.220Z,5.15
2022-09-23T05:48:19.323Z,5.57
2022-09-23T05:51:12.868Z,5.35
2022-09-23T05:54:03.936Z,4.95
2022-09-23T05:56:51.140Z,3.83
2022-09-23T05:59:38.342Z,3.50
2022-09-23T06:02:25.482Z,3.00
2022-09-23T06:05:13.561Z,3.17
2022-09-23T06:08:01.130Z,3.05
2022-09-23T06:10:53.599Z,2.60
2022-09-23T06:13:42.116Z,3.10
2022-09-23T06:16:31.546Z,3.22
2022-09-23T06:19:18.762Z,2.70
2022-09-23T06:22:05.900Z,2.67
2022-09-23T06:24:52.986Z,2.67
2022-09-23T06:27:40.091Z,2.58
2022-09-23T06:30:28.281Z,2.03
2022-09-23T06:33:15.785Z,2.33
2022-09-23T06:36:07.764Z,2.10
2022-09-23T06:38:54.847Z,2.40
2022-09-23T06:41:43.305Z,1.90
2022-09-23T06:44:32.753Z,2.10
2022-09-23T06:47:20.016Z,2.50
2022-09-23T06:50:08.101Z,1.73
2022-09-23T06:52:56.282Z,1.85
2022-09-23T06:55:44.427Z,1.60
2022-09-23T06:58:33.665Z,1.70
2022-09-23T07:01:22.394Z,1.75
2022-09-23T07:04:10.701Z,1.85
2022-09-23T07:06:58.184Z,1.55
2022-09-23T07:09:45.853Z,1.90
2022-09-23T07:12:33.539Z,1.45
2022-09-23T07:15:20.732Z,1.85
2022-09-23T07:18:07.934Z,2.15
2022-09-23T07:20:58.775Z,2.00
2022-09-23T07:23:48.242Z,1.80
2022-09-23T07:26:35.349Z,1.60
2022-09-23T07:29:22.672Z,1.70
2022-09-23T07:32:14.062Z,1.70
2022-09-23T07:35:01.577Z,1.70
2022-09-23T07:37:50.480Z,1.80
2022-09-23T07:40:39.590Z,1.63
2022-09-23T07:43:29.077Z,1.60
2022-09-23T07:46:17.707Z,1.60
2022-09-23T07:49:05.803Z,1.50
2022-09-23T07:51:53.488Z,1.30
2022-09-23T07:54:40.581Z,1.58
2022-09-23T07:57:27.715Z,1.50
2022-09-23T08:00:14.902Z,1.45
2022-09-23T08:03:02.831Z,1.80
2022-09-23T08:05:50.798Z,1.60
2022-09-23T08:08:40.475Z,1.50
2022-09-23T08:11:28.223Z,1.60
2022-09-23T08:14:17.968Z,1.50
2022-09-23T08:17:05.987Z,1.50
2022-09-23T08:19:53.157Z,1.50
2022-09-23T08:22:40.544Z,1.40
2022-09-23T08:25:27.966Z,1.58
2022-09-23T08:28:18.465Z,1.40
2022-09-23T08:31:05.921Z,1.83
2022-09-23T08:33:57.953Z,1.50
2022-09-23T08:36:45.574Z,1.63
2022-09-23T08:39:32.714Z,1.67
2022-09-23T08:42:29.280Z,1.58
2022-09-23T08:45:26.966Z,1.50
2022-09-23T08:48:17.394Z,1.70
2022-09-23T08:51:07.364Z,1.75
2022-09-23T08:53:54.512Z,1.60
2022-09-23T08:56:44.475Z,1.50
2022-09-23T08:59:43.814Z,1.77
2022-09-23T09:02:34.278Z,1.80
2022-09-23T09:05:30.825Z,1.70
2022-09-23T09:08:25.014Z,1.75
2022-09-23T09:11:15.812Z,1.60
2022-09-23T09:17:10.279Z,1.85
2022-09-23T09:20:23.104Z,1.70
2022-09-23T09:23:23.880Z,1.70
2022-09-23T09:26:31.572Z,1.60
2022-09-23T09:29:39.177Z,1.52
2022-09-23T09:32:52.378Z,1.67
2022-09-23T09:35:59.584Z,1.48
2022-09-23T09:38:51.110Z,1.40
2022-09-23T09:41:41.875Z,1.70
2022-09-23T09:45:00.534Z,1.42
2022-09-23T09:48:03.477Z,1.50
2022-09-23T09:50:53.095Z,1.58
2022-09-23T09:53:40.353Z,1.40
2022-09-23T09:56:34.404Z,1.50
2022-09-23T09:59:27.518Z,1.50
2022-09-23T10:02:45.592Z,1.50
2022-09-23T11:05:26.646Z,1.70
2022-09-23T11:08:51.006Z,1.73
2022-09-23T11:11:47.920Z,1.40
2022-09-23T11:15:57.614Z,2.08
2022-09-23T11:19:45.934Z,1.92
2022-09-23T11:23:07.996Z,1.60
2022-09-23T11:26:20.494Z,1.77
2022-09-23T11:29:43.235Z,1.77
2022-09-23T11:33:04.687Z,1.88
2022-09-23T11:36:24.583Z,1.95
2022-09-23T11:43:10.684Z,2.20
2022-09-23T11:46:05.326Z,2.10
2022-09-23T11:49:03.914Z,2.20
2022-09-23T11:52:12.119Z,2.40
2022-09-23T11:55:28.204Z,2.10
2022-09-23T11:58:28.068Z,2.10
2022-09-23T12:01:37.869Z,2.30
2022-09-23T12:04:57.798Z,2.40
2022-09-23T12:08:03.038Z,1.83
2022-09-23T12:11:06.022Z,1.95
2022-09-23T12:14:47.333Z,2.13
2022-09-23T12:17:54.435Z,2.00
2022-09-23T12:21:33.070Z,1.95
2022-09-23T12:24:45.642Z,2.25
2022-09-23T12:27:36.891Z,2.20
2022-09-23T12:30:30.597Z,2.10
2022-09-23T12:33:27.647Z,2.17
2022-09-23T12:36:14.828Z,2.00
2022-09-23T12:39:07.839Z,1.83
2022-09-23T12:42:04.191Z,1.70
2022-09-23T12:44:52.083Z,2.10
2022-09-23T12:47:40.071Z,2.00
2022-09-23T12:50:53.490Z,2.50
2022-09-23T12:53:54.435Z,2.17
2022-09-23T12:56:42.445Z,1.80
2022-09-23T12:59:31.874Z,2.00
2022-09-23T13:02:41.070Z,2.15
2022-09-23T13:05:47.324Z,2.60
2022-09-23T13:08:39.026Z,2.17
2022-09-23T13:11:30.076Z,2.17
2022-09-23T13:14:25.244Z,2.10
2022-09-23T13:17:37.236Z,2.00
2022-09-23T13:20:38.220Z,2.40
2022-09-23T13:23:31.345Z,2.10
2022-09-23T13:26:18.465Z,2.53
2022-09-23T13:29:06.989Z,2.10
2022-09-23T13:31:57.890Z,2.20
2022-09-23T13:35:05.387Z,2.90
2022-09-23T13:37:53.498Z,2.95
2022-09-23T13:40:44.987Z,2.70
2022-09-23T13:43:41.402Z,2.50
2022-09-23T13:46:38.241Z,2.60
2022-09-23T13:49:28.395Z,2.45
2022-09-23T13:52:33.721Z,2.42
2022-09-23T13:55:33.220Z,2.42
2022-09-23T13:58:23.909Z,2.20
2022-09-23T14:01:32.267Z,2.55
2022-09-23T14:04:24.916Z,2.65
2022-09-23T14:07:18.919Z,2.28
2022-09-23T14:10:08.105Z,2.67
2022-09-23T14:12:56.448Z,2.58
2022-09-23T14:15:44.812Z,3.10
2022-09-23T14:18:39.563Z,2.20
2022-09-23T14:21:38.454Z,3.55
2022-09-23T14:24:36.986Z,2.40
2022-09-23T14:27:29.988Z,2.80
2022-09-23T14:30:18.566Z,3.25
2022-09-23T14:33:30.682Z,2.92
2022-09-23T14:36:37.457Z,2.60
2022-09-23T14:39:25.475Z,3.08
2022-09-23T14:42:13.406Z,2.92
2022-09-23T14:45:00.526Z,3.13
2022-09-23T14:47:54.178Z,13.40
2022-09-23T14:50:56.787Z,2.90
2022-09-23T14:53:46.498Z,2.95
2022-09-23T14:56:41.827Z,4.53
2022-09-23T14:59:33.826Z,4.78
2022-09-23T15:02:35.223Z,3.20
2022-09-23T15:05:30.285Z,4.13
2022-09-23T15:08:23.739Z,4.00
2022-09-23T15:11:11.484Z,3.08
2022-09-23T15:14:09.475Z,3.70
2022-09-23T15:17:13.266Z,2.70
2022-09-23T15:20:06.927Z,2.83
2022-09-23T15:22:55.823Z,3.10
2022-09-23T15:25:43.053Z,3.00
2022-09-23T15:28:30.211Z,3.53
2022-09-23T15:31:19.241Z,3.30
2022-09-23T15:34:06.510Z,3.20
2022-09-23T15:36:54.307Z,3.38
2022-09-23T15:39:41.424Z,3.13
2022-09-23T15:42:29.565Z,3.15
2022-09-23T15:45:17.609Z,3.40
2022-09-23T15:48:08.524Z,3.40
2022-09-23T15:53:42.832Z,3.88
2022-09-23T15:56:30.052Z,4.80
2022-09-23T15:59:17.227Z,7.20
2022-09-23T16:02:14.720Z,22.88
2022-09-23T16:05:06.436Z,9.90
2022-09-23T16:07:53.584Z,6.05
2022-09-23T16:10:41.297Z,8.63
2022-09-23T16:13:28.478Z,4.20
2022-09-23T16:16:16.099Z,4.03
2022-09-23T16:19:03.359Z,3.50
2022-09-23T16:21:50.709Z,3.63
2022-09-23T16:24:37.994Z,3.42
2022-09-23T16:27:26.009Z,2.60
2022-09-23T16:30:13.369Z,2.58
2022-09-23T16:33:01.852Z,2.78
2022-09-23T16:35:50.059Z,2.53
2022-09-23T16:38:37.161Z,2.47
2022-09-23T16:41:25.937Z,2.63
2022-09-23T16:44:14.551Z,2.78
2022-09-23T16:47:01.683Z,2.70
2022-09-23T16:49:49.061Z,2.58
2022-09-23T16:52:36.340Z,2.97
2022-09-23T16:55:27.222Z,2.88
2022-09-23T17:01:20.551Z,3.50
2022-09-23T17:04:08.733Z,3.30
2022-09-23T17:06:56.431Z,3.30
2022-09-23T17:09:43.636Z,3.00
2022-09-23T17:12:35.033Z,3.20
2022-09-23T17:15:22.556Z,3.03
2022-09-23T17:18:09.772Z,3.17
2022-09-23T17:21:05.154Z,3.47
2022-09-23T17:23:57.518Z,3.30
2022-09-23T17:26:52.014Z,3.45
2022-09-23T17:29:39.310Z,3.47
2022-09-23T17:32:26.927Z,3.45
2022-09-23T17:35:14.095Z,3.75
2022-09-23T17:38:01.245Z,3.47
2022-09-23T17:40:54.998Z,4.00
2022-09-23T17:43:42.489Z,3.33
2022-09-23T17:46:30.152Z,3.40
2022-09-23T17:49:18.128Z,3.35
2022-09-23T17:52:05.698Z,3.35
2022-09-23T17:54:54.964Z,3.15
2022-09-23T17:57:42.172Z,3.17
2022-09-23T18:00:29.404Z,3.30
2022-09-23T18:03:16.608Z,2.65
2022-09-23T18:06:18.269Z,3.45
2022-09-23T18:09:07.670Z,3.70
2022-09-23T18:11:54.972Z,3.58
2022-09-23T18:14:42.202Z,3.63
2022-09-23T18:17:29.288Z,3.20
2022-09-23T18:20:16.967Z,3.17
2022-09-23T18:23:04.445Z,2.90
2022-09-23T18:25:51.565Z,3.05
2022-09-23T18:28:39.716Z,3.28
2022-09-23T18:31:34.240Z,3.13
2022-09-23T18:34:21.720Z,2.97
2022-09-23T18:37:15.835Z,3.38
2022-09-23T18:40:05.509Z,3.10
2022-09-23T18:42:52.630Z,3.35
2022-09-23T18:45:39.781Z,2.85
2022-09-23T18:48:47.126Z,2.70
2022-09-23T18:51:38.288Z,2.80
2022-09-23T18:57:14.653Z,3.15
2022-09-23T19:00:02.217Z,3.28
2022-09-23T19:02:49.308Z,3.25
2022-09-23T19:05:37.906Z,3.03
2022-09-23T19:08:25.293Z,3.72
2022-09-23T19:11:13.801Z,3.17
2022-09-23T19:14:01.433Z,3.00
2022-09-23T19:16:51.619Z,3.00
2022-09-23T19:19:39.112Z,3.30
2022-09-23T19:22:26.305Z,3.20
2022-09-23T19:25:13.761Z,3.13
2022-09-23T19:28:01.180Z,3.30
2022-09-23T19:30:48.289Z,3.50
2022-09-23T19:33:35.958Z,2.97
2022-09-23T19:36:26.045Z,3.03
2022-09-23T19:39:21.058Z,3.08
2022-09-23T19:42:08.282Z,3.28
2022-09-23T19:44:55.582Z,2.92
2022-09-23T19:47:42.850Z,3.13
2022-09-23T19:50:34.545Z,3.53
2022-09-23T19:53:24.850Z,7.30
2022-09-23T19:56:18.064Z,10.27
2022-09-23T19:59:07.264Z,8.85
2022-09-23T20:01:55.042Z,8.73
2022-09-23T20:04:42.306Z,7.22
2022-09-23T20:07:29.549Z,5.97
2022-09-23T20:10:17.273Z,5.10
2022-09-23T20:13:04.571Z,4.18
2022-09-23T20:15:52.340Z,3.95
2022-09-23T20:18:39.762Z,3.70
2022-09-23T20:21:28.363Z,3.72
2022-09-23T20:24:15.529Z,3.60
2022-09-23T20:27:09.139Z,3.42
2022-09-23T20:29:57.127Z,3.65
2022-09-23T20:32:44.975Z,3.63
2022-09-23T20:35:33.219Z,5.10
2022-09-23T20:38:20.405Z,9.98
2022-09-23T20:41:09.301Z,13.98
2022-09-23T20:43:59.389Z,13.82
2022-09-23T20:46:48.857Z,16.42
2022-09-23T20:49:36.507Z,9.70
2022-09-23T20:52:23.669Z,10.45
2022-09-23T20:55:10.763Z,12.07
2022-09-23T20:57:57.846Z,16.80
2022-09-23T21:00:45.575Z,11.77
2022-09-23T21:03:33.092Z,12.25
2022-09-23T21:06:22.920Z,7.88
2022-09-23T21:09:10.120Z,8.43
2022-09-23T21:11:57.572Z,5.60
2022-09-23T21:14:44.643Z,4.93
2022-09-23T21:17:31.823Z,4.70
2022-09-23T21:20:19.207Z,3.97
2022-09-23T21:23:06.355Z,3.83
2022-09-23T21:26:02.900Z,4.20
2022-09-23T21:28:52.233Z,3.88
2022-09-23T21:31:40.062Z,4.00
2022-09-23T21:34:28.267Z,3.80
2022-09-23T21:37:15.389Z,3.60
2022-09-23T21:40:21.156Z,3.97
2022-09-23T21:43:08.321Z,4.60
2022-09-23T21:46:00.101Z,5.75
2022-09-23T21:48:53.293Z,5.20
2022-09-23T21:51:41.539Z,5.53
2022-09-23T21:54:29.560Z,4.82
2022-09-23T21:57:16.670Z,3.88
2022-09-23T22:00:06.296Z,3.70
2022-09-23T22:02:53.384Z,4.47
2022-09-23T22:05:43.175Z,4.18
2022-09-23T22:08:38.563Z,4.03
2022-09-23T22:11:47.100Z,3.40
2022-09-23T22:14:34.717Z,3.33
2022-09-23T22:17:23.000Z,3.03
2022-09-23T22:20:10.284Z,3.53
2022-09-23T22:22:57.360Z,3.03
2022-09-23T22:25:44.477Z,3.22
2022-09-23T22:28:51.124Z,3.50
2022-09-23T22:31:56.907Z,3.22
2022-09-23T22:34:49.937Z,2.90
2022-09-23T22:37:38.133Z,3.35
2022-09-23T22:40:25.212Z,3.60
2022-09-23T22:43:12.400Z,3.38
2022-09-23T22:45:59.963Z,3.50
2022-09-23T22:48:47.161Z,3.38
2022-09-23T22:51:34.248Z,3.92
2022-09-23T22:54:22.154Z,4.03
2022-09-23T22:57:09.776Z,3.35
2022-09-23T22:59:56.811Z,3.10
2022-09-23T23:02:43.935Z,3.55
2022-09-23T23:05:31.306Z,3.63
2022-09-23T23:08:19.278Z,3.53
2022-09-23T23:11:11.357Z,3.63
2022-09-23T23:14:02.279Z,3.53
2022-09-23T23:16:49.586Z,2.97
2022-09-23T23:19:37.262Z,3.40
2022-09-23T23:22:27.216Z,3.25
2022-09-23T23:25:14.409Z,3.40
2022-09-23T23:28:01.822Z,3.00
2022-09-23T23:30:48.902Z,3.30
2022-09-23T23:33:36.610Z,3.05
2022-09-23T23:36:23.730Z,3.22
2022-09-23T23:39:11.799Z,3.17
2022-09-23T23:41:58.939Z,3.45
2022-09-23T23:44:46.231Z,3.10
2022-09-23T23:47:33.673Z,3.22
2022-09-23T23:50:20.804Z,3.55
2022-09-23T23:53:10.825Z,3.35
2022-09-23T23:56:00.667Z,3.20
2022-09-23T23:58:48.036Z,3.47
